Aviation Digital Data Service (ADDS)

Output produced by METARs form (2019 UTC 23 January 2019)
found at http://www.aviationweather.gov/metar/data/
 
METAR text: ENOL 231950Z 12018KT 9999 SCT030 M05/M08 Q1004 NOSIG
Conditions at: ENOL (ORLAND III(NOR-A, NO) observed 1950 UTC 23 January 2019
Temperature: -5.0°C (23°F)
Dewpoint: -8.0°C (18°F) [RH = 79%]
Pressure (altimeter): 29.65 inches Hg (1004.0 mb)
Winds: from the ESE (120 degrees) at 21 MPH (18 knots; 9.3 m/s)
Visibility: 6 or more miles (10+ km)
Ceiling: at least 12,000 feet AGL
Clouds: scattered clouds at 3000 feet AGL
Weather: no significant weather observed at this time

METAR text: ENOL 231920Z 12018KT 9999 SCT030 BKN180 M05/M08 Q1004 NOSIG
Conditions at: ENOL (ORLAND III(NOR-A, NO) observed 1920 UTC 23 January 2019
Temperature: -5.0°C (23°F)
Dewpoint: -8.0°C (18°F) [RH = 79%]
Pressure (altimeter): 29.65 inches Hg (1004.0 mb)
Winds: from the ESE (120 degrees) at 21 MPH (18 knots; 9.3 m/s)
Visibility: 6 or more miles (10+ km)
Ceiling: 18000 feet AGL
Clouds: scattered clouds at 3000 feet AGL
broken clouds at 18000 feet AGL
Weather: no significant weather observed at this time

METAR text: ENOL 231850Z 12020KT 9999 SCT030 BKN180 M05/M08 Q1004 NOSIG
Conditions at: ENOL (ORLAND III(NOR-A, NO) observed 1850 UTC 23 January 2019
Temperature: -5.0°C (23°F)
Dewpoint: -8.0°C (18°F) [RH = 79%]
Pressure (altimeter): 29.65 inches Hg (1004.0 mb)
Winds: from the ESE (120 degrees) at 23 MPH (20 knots; 10.3 m/s)
Visibility: 6 or more miles (10+ km)
Ceiling: 18000 feet AGL
Clouds: scattered clouds at 3000 feet AGL
broken clouds at 18000 feet AGL
Weather: no significant weather observed at this time

METAR text: ENOL 231820Z 12020KT 9999 FEW030 SCT150 M05/M08 Q1004 NOSIG
Conditions at: ENOL (ORLAND III(NOR-A, NO) observed 1820 UTC 23 January 2019
Temperature: -5.0°C (23°F)
Dewpoint: -8.0°C (18°F) [RH = 79%]
Pressure (altimeter): 29.65 inches Hg (1004.0 mb)
Winds: from the ESE (120 degrees) at 23 MPH (20 knots; 10.3 m/s)
Visibility: 6 or more miles (10+ km)
Ceiling: at least 12,000 feet AGL
Clouds: few clouds at 3000 feet AGL
scattered clouds at 15000 feet AGL
Weather: no significant weather observed at this time

METAR text: ENOL 231750Z 12022KT 9999 SCT030 BKN180 M05/M08 Q1004 NOSIG
Conditions at: ENOL (ORLAND III(NOR-A, NO) observed 1750 UTC 23 January 2019
Temperature: -5.0°C (23°F)
Dewpoint: -8.0°C (18°F) [RH = 79%]
Pressure (altimeter): 29.65 inches Hg (1004.0 mb)
Winds: from the ESE (120 degrees) at 25 MPH (22 knots; 11.3 m/s)
Visibility: 6 or more miles (10+ km)
Ceiling: 18000 feet AGL
Clouds: scattered clouds at 3000 feet AGL
broken clouds at 18000 feet AGL
Weather: no significant weather observed at this time

METAR text: ENOL 231720Z 12020KT 9999 FEW010 SCT150 BKN200 M05/M07 Q1004 NOSIG
Conditions at: ENOL (ORLAND III(NOR-A, NO) observed 1720 UTC 23 January 2019
Temperature: -5.0°C (23°F)
Dewpoint: -7.0°C (19°F) [RH = 86%]
Pressure (altimeter): 29.65 inches Hg (1004.0 mb)
Winds: from the ESE (120 degrees) at 23 MPH (20 knots; 10.3 m/s)
Visibility: 6 or more miles (10+ km)
Ceiling: 20000 feet AGL
Clouds: few clouds at 1000 feet AGL
scattered clouds at 15000 feet AGL
broken clouds at 20000 feet AGL
Weather: no significant weather observed at this time

METAR text: ENOL 231650Z 12020KT 9999 FEW010 BKN180 M05/M07 Q1004 NOSIG
Conditions at: ENOL (ORLAND III(NOR-A, NO) observed 1650 UTC 23 January 2019
Temperature: -5.0°C (23°F)
Dewpoint: -7.0°C (19°F) [RH = 86%]
Pressure (altimeter): 29.65 inches Hg (1004.0 mb)
Winds: from the ESE (120 degrees) at 23 MPH (20 knots; 10.3 m/s)
Visibility: 6 or more miles (10+ km)
Ceiling: 18000 feet AGL
Clouds: few clouds at 1000 feet AGL
broken clouds at 18000 feet AGL
Weather: no significant weather observed at this time

METAR text: ENOL 231620Z 12018KT 9999 FEW010 BKN180 M05/M07 Q1004 NOSIG
Conditions at: ENOL (ORLAND III(NOR-A, NO) observed 1620 UTC 23 January 2019
Temperature: -5.0°C (23°F)
Dewpoint: -7.0°C (19°F) [RH = 86%]
Pressure (altimeter): 29.65 inches Hg (1004.0 mb)
Winds: from the ESE (120 degrees) at 21 MPH (18 knots; 9.3 m/s)
Visibility: 6 or more miles (10+ km)
Ceiling: 18000 feet AGL
Clouds: few clouds at 1000 feet AGL
broken clouds at 18000 feet AGL
Weather: no significant weather observed at this time

METAR text: ENOL 231550Z 12017KT 9999 FEW010 BKN180 M05/M07 Q1004 NOSIG
Conditions at: ENOL (ORLAND III(NOR-A, NO) observed 1550 UTC 23 January 2019
Temperature: -5.0°C (23°F)
Dewpoint: -7.0°C (19°F) [RH = 86%]
Pressure (altimeter): 29.65 inches Hg (1004.0 mb)
Winds: from the ESE (120 degrees) at 20 MPH (17 knots; 8.7 m/s)
Visibility: 6 or more miles (10+ km)
Ceiling: 18000 feet AGL
Clouds: few clouds at 1000 feet AGL
broken clouds at 18000 feet AGL
Weather: no significant weather observed at this time

METAR text: ENOL 231520Z 12016KT 9999 FEW010 BKN180 M05/M07 Q1003 NOSIG
Conditions at: ENOL (ORLAND III(NOR-A, NO) observed 1520 UTC 23 January 2019
Temperature: -5.0°C (23°F)
Dewpoint: -7.0°C (19°F) [RH = 86%]
Pressure (altimeter): 29.62 inches Hg (1003.0 mb)
Winds: from the ESE (120 degrees) at 18 MPH (16 knots; 8.2 m/s)
Visibility: 6 or more miles (10+ km)
Ceiling: 18000 feet AGL
Clouds: few clouds at 1000 feet AGL
broken clouds at 18000 feet AGL
Weather: no significant weather observed at this time

METAR text: ENOL 231450Z 11018KT 9999 FEW008 BKN180 M05/M07 Q1003 NOSIG
Conditions at: ENOL (ORLAND III(NOR-A, NO) observed 1450 UTC 23 January 2019
Temperature: -5.0°C (23°F)
Dewpoint: -7.0°C (19°F) [RH = 86%]
Pressure (altimeter): 29.62 inches Hg (1003.0 mb)
Winds: from the ESE (110 degrees) at 21 MPH (18 knots; 9.3 m/s)
Visibility: 6 or more miles (10+ km)
Ceiling: 18000 feet AGL
Clouds: few clouds at 800 feet AGL
broken clouds at 18000 feet AGL
Weather: no significant weather observed at this time

METAR text: ENOL 231420Z 12018KT 9999 FEW008 BKN200 M05/M07 Q1003 NOSIG
Conditions at: ENOL (ORLAND III(NOR-A, NO) observed 1420 UTC 23 January 2019
Temperature: -5.0°C (23°F)
Dewpoint: -7.0°C (19°F) [RH = 86%]
Pressure (altimeter): 29.62 inches Hg (1003.0 mb)
Winds: from the ESE (120 degrees) at 21 MPH (18 knots; 9.3 m/s)
Visibility: 6 or more miles (10+ km)
Ceiling: 20000 feet AGL
Clouds: few clouds at 800 feet AGL
broken clouds at 20000 feet AGL
Weather: no significant weather observed at this time

METAR text: ENOL 231350Z 12016KT 9999 FEW008 BKN200 M05/M07 Q1003 NOSIG
Conditions at: ENOL (ORLAND III(NOR-A, NO) observed 1350 UTC 23 January 2019
Temperature: -5.0°C (23°F)
Dewpoint: -7.0°C (19°F) [RH = 86%]
Pressure (altimeter): 29.62 inches Hg (1003.0 mb)
Winds: from the ESE (120 degrees) at 18 MPH (16 knots; 8.2 m/s)
Visibility: 6 or more miles (10+ km)
Ceiling: 20000 feet AGL
Clouds: few clouds at 800 feet AGL
broken clouds at 20000 feet AGL
Weather: no significant weather observed at this time

METAR text: ENOL 231320Z 12015KT 9999 FEW008 BKN200 M05/M07 Q1003 NOSIG
Conditions at: ENOL (ORLAND III(NOR-A, NO) observed 1320 UTC 23 January 2019
Temperature: -5.0°C (23°F)
Dewpoint: -7.0°C (19°F) [RH = 86%]
Pressure (altimeter): 29.62 inches Hg (1003.0 mb)
Winds: from the ESE (120 degrees) at 17 MPH (15 knots; 7.7 m/s)
Visibility: 6 or more miles (10+ km)
Ceiling: 20000 feet AGL
Clouds: few clouds at 800 feet AGL
broken clouds at 20000 feet AGL
Weather: no significant weather observed at this time

METAR text: ENOL 231250Z 12015KT 9999 FEW007 BKN200 M05/M07 Q1003 NOSIG
Conditions at: ENOL (ORLAND III(NOR-A, NO) observed 1250 UTC 23 January 2019
Temperature: -5.0°C (23°F)
Dewpoint: -7.0°C (19°F) [RH = 86%]
Pressure (altimeter): 29.62 inches Hg (1003.0 mb)
Winds: from the ESE (120 degrees) at 17 MPH (15 knots; 7.7 m/s)
Visibility: 6 or more miles (10+ km)
Ceiling: 20000 feet AGL
Clouds: few clouds at 700 feet AGL
broken clouds at 20000 feet AGL
Weather: no significant weather observed at this time

METAR text: ENOL 231220Z 12016KT 9999 FEW007 SCT200 M05/M07 Q1002 NOSIG
Conditions at: ENOL (ORLAND III(NOR-A, NO) observed 1220 UTC 23 January 2019
Temperature: -5.0°C (23°F)
Dewpoint: -7.0°C (19°F) [RH = 86%]
Pressure (altimeter): 29.59 inches Hg (1002.0 mb)
Winds: from the ESE (120 degrees) at 18 MPH (16 knots; 8.2 m/s)
Visibility: 6 or more miles (10+ km)
Ceiling: at least 12,000 feet AGL
Clouds: few clouds at 700 feet AGL
scattered clouds at 20000 feet AGL
Weather: no significant weather observed at this time

METAR text: ENOL 231150Z 12014KT 9999 FEW007 SCT200 M05/M07 Q1002 NOSIG
Conditions at: ENOL (ORLAND III(NOR-A, NO) observed 1150 UTC 23 January 2019
Temperature: -5.0°C (23°F)
Dewpoint: -7.0°C (19°F) [RH = 86%]
Pressure (altimeter): 29.59 inches Hg (1002.0 mb)
Winds: from the ESE (120 degrees) at 16 MPH (14 knots; 7.2 m/s)
Visibility: 6 or more miles (10+ km)
Ceiling: at least 12,000 feet AGL
Clouds: few clouds at 700 feet AGL
scattered clouds at 20000 feet AGL
Weather: no significant weather observed at this time

METAR text: ENOL 231120Z 12015KT 9999 FEW008 SCT200 M05/M07 Q1002 NOSIG
Conditions at: ENOL (ORLAND III(NOR-A, NO) observed 1120 UTC 23 January 2019
Temperature: -5.0°C (23°F)
Dewpoint: -7.0°C (19°F) [RH = 86%]
Pressure (altimeter): 29.59 inches Hg (1002.0 mb)
Winds: from the ESE (120 degrees) at 17 MPH (15 knots; 7.7 m/s)
Visibility: 6 or more miles (10+ km)
Ceiling: at least 12,000 feet AGL
Clouds: few clouds at 800 feet AGL
scattered clouds at 20000 feet AGL
Weather: no significant weather observed at this time

METAR text: ENOL 231050Z 12015KT 9999 FEW008 SCT200 M05/M07 Q1002 NOSIG
Conditions at: ENOL (ORLAND III(NOR-A, NO) observed 1050 UTC 23 January 2019
Temperature: -5.0°C (23°F)
Dewpoint: -7.0°C (19°F) [RH = 86%]
Pressure (altimeter): 29.59 inches Hg (1002.0 mb)
Winds: from the ESE (120 degrees) at 17 MPH (15 knots; 7.7 m/s)
Visibility: 6 or more miles (10+ km)
Ceiling: at least 12,000 feet AGL
Clouds: few clouds at 800 feet AGL
scattered clouds at 20000 feet AGL
Weather: no significant weather observed at this time

METAR text: ENOL 231020Z 12015KT 9999 FEW008 BKN200 M05/M07 Q1002 NOSIG
Conditions at: ENOL (ORLAND III(NOR-A, NO) observed 1020 UTC 23 January 2019
Temperature: -5.0°C (23°F)
Dewpoint: -7.0°C (19°F) [RH = 86%]
Pressure (altimeter): 29.59 inches Hg (1002.0 mb)
Winds: from the ESE (120 degrees) at 17 MPH (15 knots; 7.7 m/s)
Visibility: 6 or more miles (10+ km)
Ceiling: 20000 feet AGL
Clouds: few clouds at 800 feet AGL
broken clouds at 20000 feet AGL
Weather: no significant weather observed at this time

METAR text: ENOL 230950Z 12015KT 9999 FEW008 BKN200 M05/M07 Q1002 NOSIG
Conditions at: ENOL (ORLAND III(NOR-A, NO) observed 0950 UTC 23 January 2019
Temperature: -5.0°C (23°F)
Dewpoint: -7.0°C (19°F) [RH = 86%]
Pressure (altimeter): 29.59 inches Hg (1002.0 mb)
Winds: from the ESE (120 degrees) at 17 MPH (15 knots; 7.7 m/s)
Visibility: 6 or more miles (10+ km)
Ceiling: 20000 feet AGL
Clouds: few clouds at 800 feet AGL
broken clouds at 20000 feet AGL
Weather: no significant weather observed at this time

METAR text: ENOL 230920Z 12015KT 9999 FEW008 BKN200 M05/M07 Q1002 NOSIG
Conditions at: ENOL (ORLAND III(NOR-A, NO) observed 0920 UTC 23 January 2019
Temperature: -5.0°C (23°F)
Dewpoint: -7.0°C (19°F) [RH = 86%]
Pressure (altimeter): 29.59 inches Hg (1002.0 mb)
Winds: from the ESE (120 degrees) at 17 MPH (15 knots; 7.7 m/s)
Visibility: 6 or more miles (10+ km)
Ceiling: 20000 feet AGL
Clouds: few clouds at 800 feet AGL
broken clouds at 20000 feet AGL
Weather: no significant weather observed at this time

METAR text: ENOL 230850Z 12014KT 9999 FEW008 BKN200 M05/M07 Q1002 NOSIG
Conditions at: ENOL (ORLAND III(NOR-A, NO) observed 0850 UTC 23 January 2019
Temperature: -5.0°C (23°F)
Dewpoint: -7.0°C (19°F) [RH = 86%]
Pressure (altimeter): 29.59 inches Hg (1002.0 mb)
Winds: from the ESE (120 degrees) at 16 MPH (14 knots; 7.2 m/s)
Visibility: 6 or more miles (10+ km)
Ceiling: 20000 feet AGL
Clouds: few clouds at 800 feet AGL
broken clouds at 20000 feet AGL
Weather: no significant weather observed at this time

METAR text: ENOL 230820Z 12013KT 9999 FEW008 BKN200 M05/M07 Q1001 NOSIG
Conditions at: ENOL (ORLAND III(NOR-A, NO) observed 0820 UTC 23 January 2019
Temperature: -5.0°C (23°F)
Dewpoint: -7.0°C (19°F) [RH = 86%]
Pressure (altimeter): 29.56 inches Hg (1001.0 mb)
Winds: from the ESE (120 degrees) at 15 MPH (13 knots; 6.7 m/s)
Visibility: 6 or more miles (10+ km)
Ceiling: 20000 feet AGL
Clouds: few clouds at 800 feet AGL
broken clouds at 20000 feet AGL
Weather: no significant weather observed at this time

METAR text: ENOL 230750Z 12014KT CAVOK M05/M07 Q1001 NOSIG
Conditions at: ENOL (ORLAND III(NOR-A, NO) observed 0750 UTC 23 January 2019
Temperature: -5.0°C (23°F)
Dewpoint: -7.0°C (19°F) [RH = 86%]
Pressure (altimeter): 29.56 inches Hg (1001.0 mb)
Winds: from the ESE (120 degrees) at 16 MPH (14 knots; 7.2 m/s)
Visibility: 6 or more miles (10+ km)
Ceiling: ceiling and visibility are OK
Clouds: unknown
Weather: no significant weather observed at this time

METAR text: ENOL 230720Z 12016KT CAVOK M05/M07 Q1001 NOSIG
Conditions at: ENOL (ORLAND III(NOR-A, NO) observed 0720 UTC 23 January 2019
Temperature: -5.0°C (23°F)
Dewpoint: -7.0°C (19°F) [RH = 86%]
Pressure (altimeter): 29.56 inches Hg (1001.0 mb)
Winds: from the ESE (120 degrees) at 18 MPH (16 knots; 8.2 m/s)
Visibility: 6 or more miles (10+ km)
Ceiling: ceiling and visibility are OK
Clouds: unknown
Weather: no significant weather observed at this time

METAR text: ENOL 230650Z 12014KT CAVOK M05/M07 Q1001 NOSIG
Conditions at: ENOL (ORLAND III(NOR-A, NO) observed 0650 UTC 23 January 2019
Temperature: -5.0°C (23°F)
Dewpoint: -7.0°C (19°F) [RH = 86%]
Pressure (altimeter): 29.56 inches Hg (1001.0 mb)
Winds: from the ESE (120 degrees) at 16 MPH (14 knots; 7.2 m/s)
Visibility: 6 or more miles (10+ km)
Ceiling: ceiling and visibility are OK
Clouds: unknown
Weather: no significant weather observed at this time

METAR text: ENOL 230620Z 12015KT CAVOK M05/M07 Q1001 NOSIG
Conditions at: ENOL (ORLAND III(NOR-A, NO) observed 0620 UTC 23 January 2019
Temperature: -5.0°C (23°F)
Dewpoint: -7.0°C (19°F) [RH = 86%]
Pressure (altimeter): 29.56 inches Hg (1001.0 mb)
Winds: from the ESE (120 degrees) at 17 MPH (15 knots; 7.7 m/s)
Visibility: 6 or more miles (10+ km)
Ceiling: ceiling and visibility are OK
Clouds: unknown
Weather: no significant weather observed at this time

METAR text: ENOL 230550Z 12016KT CAVOK M05/M07 Q1000 NOSIG
Conditions at: ENOL (ORLAND III(NOR-A, NO) observed 0550 UTC 23 January 2019
Temperature: -5.0°C (23°F)
Dewpoint: -7.0°C (19°F) [RH = 86%]
Pressure (altimeter): 29.53 inches Hg (1000.0 mb)
Winds: from the ESE (120 degrees) at 18 MPH (16 knots; 8.2 m/s)
Visibility: 6 or more miles (10+ km)
Ceiling: ceiling and visibility are OK
Clouds: unknown
Weather: no significant weather observed at this time

METAR text: ENOL 230520Z 12017KT CAVOK M05/M07 Q1000 NOSIG
Conditions at: ENOL (ORLAND III(NOR-A, NO) observed 0520 UTC 23 January 2019
Temperature: -5.0°C (23°F)
Dewpoint: -7.0°C (19°F) [RH = 86%]
Pressure (altimeter): 29.53 inches Hg (1000.0 mb)
Winds: from the ESE (120 degrees) at 20 MPH (17 knots; 8.7 m/s)
Visibility: 6 or more miles (10+ km)
Ceiling: ceiling and visibility are OK
Clouds: unknown
Weather: no significant weather observed at this time

METAR text: ENOL 230450Z 12016KT CAVOK M05/M07 Q1000
Conditions at: ENOL (ORLAND III(NOR-A, NO) observed 0450 UTC 23 January 2019
Temperature: -5.0°C (23°F)
Dewpoint: -7.0°C (19°F) [RH = 86%]
Pressure (altimeter): 29.53 inches Hg (1000.0 mb)
Winds: from the ESE (120 degrees) at 18 MPH (16 knots; 8.2 m/s)
Visibility: 6 or more miles (10+ km)
Ceiling: ceiling and visibility are OK
Clouds: unknown
Weather: no significant weather observed at this time

METAR text: ENOL 230350Z 13017KT CAVOK M05/M07 Q1000
Conditions at: ENOL (ORLAND III(NOR-A, NO) observed 0350 UTC 23 January 2019
Temperature: -5.0°C (23°F)
Dewpoint: -7.0°C (19°F) [RH = 86%]
Pressure (altimeter): 29.53 inches Hg (1000.0 mb)
Winds: from the SE (130 degrees) at 20 MPH (17 knots; 8.7 m/s)
Visibility: 6 or more miles (10+ km)
Ceiling: ceiling and visibility are OK
Clouds: unknown
Weather: no significant weather observed at this time

METAR text: ENOL 230250Z 12018KT CAVOK M05/M08 Q1000
Conditions at: ENOL (ORLAND III(NOR-A, NO) observed 0250 UTC 23 January 2019
Temperature: -5.0°C (23°F)
Dewpoint: -8.0°C (18°F) [RH = 79%]
Pressure (altimeter): 29.53 inches Hg (1000.0 mb)
Winds: from the ESE (120 degrees) at 21 MPH (18 knots; 9.3 m/s)
Visibility: 6 or more miles (10+ km)
Ceiling: ceiling and visibility are OK
Clouds: unknown
Weather: no significant weather observed at this time

METAR text: ENOL 230150Z 13018KT CAVOK M05/M08 Q1000
Conditions at: ENOL (ORLAND III(NOR-A, NO) observed 0150 UTC 23 January 2019
Temperature: -5.0°C (23°F)
Dewpoint: -8.0°C (18°F) [RH = 79%]
Pressure (altimeter): 29.53 inches Hg (1000.0 mb)
Winds: from the SE (130 degrees) at 21 MPH (18 knots; 9.3 m/s)
Visibility: 6 or more miles (10+ km)
Ceiling: ceiling and visibility are OK
Clouds: unknown
Weather: no significant weather observed at this time

METAR text: ENOL 230050Z 12020KT CAVOK M05/M08 Q1000
Conditions at: ENOL (ORLAND III(NOR-A, NO) observed 0050 UTC 23 January 2019
Temperature: -5.0°C (23°F)
Dewpoint: -8.0°C (18°F) [RH = 79%]
Pressure (altimeter): 29.53 inches Hg (1000.0 mb)
Winds: from the ESE (120 degrees) at 23 MPH (20 knots; 10.3 m/s)
Visibility: 6 or more miles (10+ km)
Ceiling: ceiling and visibility are OK
Clouds: unknown
Weather: no significant weather observed at this time

METAR text: ENOL 222350Z 13018KT CAVOK M05/M08 Q1000
Conditions at: ENOL (ORLAND III(NOR-A, NO) observed 2350 UTC 22 January 2019
Temperature: -5.0°C (23°F)
Dewpoint: -8.0°C (18°F) [RH = 79%]
Pressure (altimeter): 29.53 inches Hg (1000.0 mb)
Winds: from the SE (130 degrees) at 21 MPH (18 knots; 9.3 m/s)
Visibility: 6 or more miles (10+ km)
Ceiling: ceiling and visibility are OK
Clouds: unknown
Weather: no significant weather observed at this time

METAR text: ENOL 222250Z 12019KT CAVOK M05/M08 Q1000
Conditions at: ENOL (ORLAND III(NOR-A, NO) observed 2250 UTC 22 January 2019
Temperature: -5.0°C (23°F)
Dewpoint: -8.0°C (18°F) [RH = 79%]
Pressure (altimeter): 29.53 inches Hg (1000.0 mb)
Winds: from the ESE (120 degrees) at 22 MPH (19 knots; 9.8 m/s)
Visibility: 6 or more miles (10+ km)
Ceiling: ceiling and visibility are OK
Clouds: unknown
Weather: no significant weather observed at this time

METAR text: ENOL 222150Z 12019KT 9999 FEW130 SCT250 M04/M08 Q1001 NOSIG
Conditions at: ENOL (ORLAND III(NOR-A, NO) observed 2150 UTC 22 January 2019
Temperature: -4.0°C (25°F)
Dewpoint: -8.0°C (18°F) [RH = 74%]
Pressure (altimeter): 29.56 inches Hg (1001.0 mb)
Winds: from the ESE (120 degrees) at 22 MPH (19 knots; 9.8 m/s)
Visibility: 6 or more miles (10+ km)
Ceiling: at least 12,000 feet AGL
Clouds: few clouds at 13000 feet AGL
scattered clouds at 25000 feet AGL
Weather: no significant weather observed at this time

METAR text: ENOL 222120Z 12019KT 9999 FEW150 SCT250 M04/M07 Q1001 NOSIG
Conditions at: ENOL (ORLAND III(NOR-A, NO) observed 2120 UTC 22 January 2019
Temperature: -4.0°C (25°F)
Dewpoint: -7.0°C (19°F) [RH = 80%]
Pressure (altimeter): 29.56 inches Hg (1001.0 mb)
Winds: from the ESE (120 degrees) at 22 MPH (19 knots; 9.8 m/s)
Visibility: 6 or more miles (10+ km)
Ceiling: at least 12,000 feet AGL
Clouds: few clouds at 15000 feet AGL
scattered clouds at 25000 feet AGL
Weather: no significant weather observed at this time

METAR text: ENOL 222050Z 13020KT 9999 -DRSN FEW150 SCT250 M04/M08 Q1001 NOSIG
Conditions at: ENOL (ORLAND III(NOR-A, NO) observed 2050 UTC 22 January 2019
Temperature: -4.0°C (25°F)
Dewpoint: -8.0°C (18°F) [RH = 74%]
Pressure (altimeter): 29.56 inches Hg (1001.0 mb)
Winds: from the SE (130 degrees) at 23 MPH (20 knots; 10.3 m/s)
Visibility: 6 or more miles (10+ km)
Ceiling: at least 12,000 feet AGL
Clouds: few clouds at 15000 feet AGL
scattered clouds at 25000 feet AGL
Weather: -DRSN  (unknown weather)

METAR text: ENOL 222020Z 13019KT 9999 -DRSN FEW150 SCT250 M04/M08 Q1001 NOSIG
Conditions at: ENOL (ORLAND III(NOR-A, NO) observed 2020 UTC 22 January 2019
Temperature: -4.0°C (25°F)
Dewpoint: -8.0°C (18°F) [RH = 74%]
Pressure (altimeter): 29.56 inches Hg (1001.0 mb)
Winds: from the SE (130 degrees) at 22 MPH (19 knots; 9.8 m/s)
Visibility: 6 or more miles (10+ km)
Ceiling: at least 12,000 feet AGL
Clouds: few clouds at 15000 feet AGL
scattered clouds at 25000 feet AGL
Weather: -DRSN  (unknown weather)

METAR text: ENOL 221950Z 12017KT 9999 -DRSN FEW150 SCT250 M04/M08 Q1001 NOSIG
Conditions at: ENOL (ORLAND III(NOR-A, NO) observed 1950 UTC 22 January 2019
Temperature: -4.0°C (25°F)
Dewpoint: -8.0°C (18°F) [RH = 74%]
Pressure (altimeter): 29.56 inches Hg (1001.0 mb)
Winds: from the ESE (120 degrees) at 20 MPH (17 knots; 8.7 m/s)
Visibility: 6 or more miles (10+ km)
Ceiling: at least 12,000 feet AGL
Clouds: few clouds at 15000 feet AGL
scattered clouds at 25000 feet AGL
Weather: -DRSN  (unknown weather)

METAR text: ENOL 221920Z 12017KT 9999 -DRSN FEW150 SCT250 M04/M07 Q1001 NOSIG
Conditions at: ENOL (ORLAND III(NOR-A, NO) observed 1920 UTC 22 January 2019
Temperature: -4.0°C (25°F)
Dewpoint: -7.0°C (19°F) [RH = 80%]
Pressure (altimeter): 29.56 inches Hg (1001.0 mb)
Winds: from the ESE (120 degrees) at 20 MPH (17 knots; 8.7 m/s)
Visibility: 6 or more miles (10+ km)
Ceiling: at least 12,000 feet AGL
Clouds: few clouds at 15000 feet AGL
scattered clouds at 25000 feet AGL
Weather: -DRSN  (unknown weather)

METAR text: ENOL 221850Z 12018KT 9999 -DRSN FEW150 SCT250 M04/M08 Q1001 NOSIG
Conditions at: ENOL (ORLAND III(NOR-A, NO) observed 1850 UTC 22 January 2019
Temperature: -4.0°C (25°F)
Dewpoint: -8.0°C (18°F) [RH = 74%]
Pressure (altimeter): 29.56 inches Hg (1001.0 mb)
Winds: from the ESE (120 degrees) at 21 MPH (18 knots; 9.3 m/s)
Visibility: 6 or more miles (10+ km)
Ceiling: at least 12,000 feet AGL
Clouds: few clouds at 15000 feet AGL
scattered clouds at 25000 feet AGL
Weather: -DRSN  (unknown weather)

METAR text: ENOL 221820Z 12017KT 9999 FEW150 SCT250 M04/M07 Q1001 NOSIG
Conditions at: ENOL (ORLAND III(NOR-A, NO) observed 1820 UTC 22 January 2019
Temperature: -4.0°C (25°F)
Dewpoint: -7.0°C (19°F) [RH = 80%]
Pressure (altimeter): 29.56 inches Hg (1001.0 mb)
Winds: from the ESE (120 degrees) at 20 MPH (17 knots; 8.7 m/s)
Visibility: 6 or more miles (10+ km)
Ceiling: at least 12,000 feet AGL
Clouds: few clouds at 15000 feet AGL
scattered clouds at 25000 feet AGL
Weather: no significant weather observed at this time

METAR text: ENOL 221750Z 12014KT 9999 FEW150 SCT250 M04/M08 Q1001 NOSIG
Conditions at: ENOL (ORLAND III(NOR-A, NO) observed 1750 UTC 22 January 2019
Temperature: -4.0°C (25°F)
Dewpoint: -8.0°C (18°F) [RH = 74%]
Pressure (altimeter): 29.56 inches Hg (1001.0 mb)
Winds: from the ESE (120 degrees) at 16 MPH (14 knots; 7.2 m/s)
Visibility: 6 or more miles (10+ km)
Ceiling: at least 12,000 feet AGL
Clouds: few clouds at 15000 feet AGL
scattered clouds at 25000 feet AGL
Weather: no significant weather observed at this time

METAR text: ENOL 221720Z 11016KT 9999 -DRSN SCT150 BKN250 M04/M08 Q1001 NOSIG
Conditions at: ENOL (ORLAND III(NOR-A, NO) observed 1720 UTC 22 January 2019
Temperature: -4.0°C (25°F)
Dewpoint: -8.0°C (18°F) [RH = 74%]
Pressure (altimeter): 29.56 inches Hg (1001.0 mb)
Winds: from the ESE (110 degrees) at 18 MPH (16 knots; 8.2 m/s)
Visibility: 6 or more miles (10+ km)
Ceiling: 25000 feet AGL
Clouds: scattered clouds at 15000 feet AGL
broken clouds at 25000 feet AGL
Weather: -DRSN  (unknown weather)

METAR text: ENOL 221650Z 11016KT 9999 -DRSN SCT150 BKN250 M03/M08 Q1001 NOSIG
Conditions at: ENOL (ORLAND III(NOR-A, NO) observed 1650 UTC 22 January 2019
Temperature: -3.0°C (27°F)
Dewpoint: -8.0°C (18°F) [RH = 68%]
Pressure (altimeter): 29.56 inches Hg (1001.0 mb)
Winds: from the ESE (110 degrees) at 18 MPH (16 knots; 8.2 m/s)
Visibility: 6 or more miles (10+ km)
Ceiling: 25000 feet AGL
Clouds: scattered clouds at 15000 feet AGL
broken clouds at 25000 feet AGL
Weather: -DRSN  (unknown weather)

METAR text: ENOL 221620Z 12018KT 9999 -DRSN SCT150 BKN250 M04/M07 Q1002 NOSIG
Conditions at: ENOL (ORLAND III(NOR-A, NO) observed 1620 UTC 22 January 2019
Temperature: -4.0°C (25°F)
Dewpoint: -7.0°C (19°F) [RH = 80%]
Pressure (altimeter): 29.59 inches Hg (1002.0 mb)
Winds: from the ESE (120 degrees) at 21 MPH (18 knots; 9.3 m/s)
Visibility: 6 or more miles (10+ km)
Ceiling: 25000 feet AGL
Clouds: scattered clouds at 15000 feet AGL
broken clouds at 25000 feet AGL
Weather: -DRSN  (unknown weather)

METAR text: ENOL 221550Z 13017KT 9999 -DRSN SCT150 BKN250 M04/M07 Q1002 NOSIG
Conditions at: ENOL (ORLAND III(NOR-A, NO) observed 1550 UTC 22 January 2019
Temperature: -4.0°C (25°F)
Dewpoint: -7.0°C (19°F) [RH = 80%]
Pressure (altimeter): 29.59 inches Hg (1002.0 mb)
Winds: from the SE (130 degrees) at 20 MPH (17 knots; 8.7 m/s)
Visibility: 6 or more miles (10+ km)
Ceiling: 25000 feet AGL
Clouds: scattered clouds at 15000 feet AGL
broken clouds at 25000 feet AGL
Weather: -DRSN  (unknown weather)

METAR text: ENOL 221520Z 13018KT 9999 -DRSN SCT180 BKN250 M04/M07 Q1002 NOSIG
Conditions at: ENOL (ORLAND III(NOR-A, NO) observed 1520 UTC 22 January 2019
Temperature: -4.0°C (25°F)
Dewpoint: -7.0°C (19°F) [RH = 80%]
Pressure (altimeter): 29.59 inches Hg (1002.0 mb)
Winds: from the SE (130 degrees) at 21 MPH (18 knots; 9.3 m/s)
Visibility: 6 or more miles (10+ km)
Ceiling: 25000 feet AGL
Clouds: scattered clouds at 18000 feet AGL
broken clouds at 25000 feet AGL
Weather: -DRSN  (unknown weather)

METAR text: ENOL 221450Z 12019KT 9999 DRSN SCT180 BKN250 M04/M07 Q1002 NOSIG
Conditions at: ENOL (ORLAND III(NOR-A, NO) observed 1450 UTC 22 January 2019
Temperature: -4.0°C (25°F)
Dewpoint: -7.0°C (19°F) [RH = 80%]
Pressure (altimeter): 29.59 inches Hg (1002.0 mb)
Winds: from the ESE (120 degrees) at 22 MPH (19 knots; 9.8 m/s)
Visibility: 6 or more miles (10+ km)
Ceiling: 25000 feet AGL
Clouds: scattered clouds at 18000 feet AGL
broken clouds at 25000 feet AGL
Weather: DRSN  (low drifting snow)

METAR text: ENOL 221420Z 12018KT 9999 DRSN SCT180 BKN250 M03/M07 Q1002 NOSIG
Conditions at: ENOL (ORLAND III(NOR-A, NO) observed 1420 UTC 22 January 2019
Temperature: -3.0°C (27°F)
Dewpoint: -7.0°C (19°F) [RH = 74%]
Pressure (altimeter): 29.59 inches Hg (1002.0 mb)
Winds: from the ESE (120 degrees) at 21 MPH (18 knots; 9.3 m/s)
Visibility: 6 or more miles (10+ km)
Ceiling: 25000 feet AGL
Clouds: scattered clouds at 18000 feet AGL
broken clouds at 25000 feet AGL
Weather: DRSN  (low drifting snow)

METAR text: ENOL 221350Z 13020KT CAVOK M03/M07 Q1002 NOSIG
Conditions at: ENOL (ORLAND III(NOR-A, NO) observed 1350 UTC 22 January 2019
Temperature: -3.0°C (27°F)
Dewpoint: -7.0°C (19°F) [RH = 74%]
Pressure (altimeter): 29.59 inches Hg (1002.0 mb)
Winds: from the SE (130 degrees) at 23 MPH (20 knots; 10.3 m/s)
Visibility: 6 or more miles (10+ km)
Ceiling: ceiling and visibility are OK
Clouds: unknown
Weather: no significant weather observed at this time

METAR text: ENOL 221320Z 12017KT CAVOK M03/M07 Q1003 NOSIG
Conditions at: ENOL (ORLAND III(NOR-A, NO) observed 1320 UTC 22 January 2019
Temperature: -3.0°C (27°F)
Dewpoint: -7.0°C (19°F) [RH = 74%]
Pressure (altimeter): 29.62 inches Hg (1003.0 mb)
Winds: from the ESE (120 degrees) at 20 MPH (17 knots; 8.7 m/s)
Visibility: 6 or more miles (10+ km)
Ceiling: ceiling and visibility are OK
Clouds: unknown
Weather: no significant weather observed at this time

METAR text: ENOL 221250Z 12016KT CAVOK M04/M07 Q1003 NOSIG
Conditions at: ENOL (ORLAND III(NOR-A, NO) observed 1250 UTC 22 January 2019
Temperature: -4.0°C (25°F)
Dewpoint: -7.0°C (19°F) [RH = 80%]
Pressure (altimeter): 29.62 inches Hg (1003.0 mb)
Winds: from the ESE (120 degrees) at 18 MPH (16 knots; 8.2 m/s)
Visibility: 6 or more miles (10+ km)
Ceiling: ceiling and visibility are OK
Clouds: unknown
Weather: no significant weather observed at this time

METAR text: ENOL 221220Z 13020KT CAVOK M04/M07 Q1003 NOSIG
Conditions at: ENOL (ORLAND III(NOR-A, NO) observed 1220 UTC 22 January 2019
Temperature: -4.0°C (25°F)
Dewpoint: -7.0°C (19°F) [RH = 80%]
Pressure (altimeter): 29.62 inches Hg (1003.0 mb)
Winds: from the SE (130 degrees) at 23 MPH (20 knots; 10.3 m/s)
Visibility: 6 or more miles (10+ km)
Ceiling: ceiling and visibility are OK
Clouds: unknown
Weather: no significant weather observed at this time

METAR text: ENOL 221150Z 12019KT CAVOK M04/M06 Q1003 NOSIG
Conditions at: ENOL (ORLAND III(NOR-A, NO) observed 1150 UTC 22 January 2019
Temperature: -4.0°C (25°F)
Dewpoint: -6.0°C (21°F) [RH = 86%]
Pressure (altimeter): 29.62 inches Hg (1003.0 mb)
Winds: from the ESE (120 degrees) at 22 MPH (19 knots; 9.8 m/s)
Visibility: 6 or more miles (10+ km)
Ceiling: ceiling and visibility are OK
Clouds: unknown
Weather: no significant weather observed at this time

METAR text: ENOL 221120Z 13020KT 9999 FEW010 SCT180 M04/M06 Q1003 NOSIG
Conditions at: ENOL (ORLAND III(NOR-A, NO) observed 1120 UTC 22 January 2019
Temperature: -4.0°C (25°F)
Dewpoint: -6.0°C (21°F) [RH = 86%]
Pressure (altimeter): 29.62 inches Hg (1003.0 mb)
Winds: from the SE (130 degrees) at 23 MPH (20 knots; 10.3 m/s)
Visibility: 6 or more miles (10+ km)
Ceiling: at least 12,000 feet AGL
Clouds: few clouds at 1000 feet AGL
scattered clouds at 18000 feet AGL
Weather: no significant weather observed at this time

METAR text: ENOL 221050Z 12017KT 9999 FEW010 BKN180 M04/M06 Q1004 NOSIG
Conditions at: ENOL (ORLAND III(NOR-A, NO) observed 1050 UTC 22 January 2019
Temperature: -4.0°C (25°F)
Dewpoint: -6.0°C (21°F) [RH = 86%]
Pressure (altimeter): 29.65 inches Hg (1004.0 mb)
Winds: from the ESE (120 degrees) at 20 MPH (17 knots; 8.7 m/s)
Visibility: 6 or more miles (10+ km)
Ceiling: 18000 feet AGL
Clouds: few clouds at 1000 feet AGL
broken clouds at 18000 feet AGL
Weather: no significant weather observed at this time

METAR text: ENOL 221020Z 13020KT 9999 FEW010 BKN180 M04/M06 Q1004 NOSIG
Conditions at: ENOL (ORLAND III(NOR-A, NO) observed 1020 UTC 22 January 2019
Temperature: -4.0°C (25°F)
Dewpoint: -6.0°C (21°F) [RH = 86%]
Pressure (altimeter): 29.65 inches Hg (1004.0 mb)
Winds: from the SE (130 degrees) at 23 MPH (20 knots; 10.3 m/s)
Visibility: 6 or more miles (10+ km)
Ceiling: 18000 feet AGL
Clouds: few clouds at 1000 feet AGL
broken clouds at 18000 feet AGL
Weather: no significant weather observed at this time

METAR text: ENOL 220950Z 12019KT 9999 FEW010 SCT180 M04/M06 Q1004 NOSIG
Conditions at: ENOL (ORLAND III(NOR-A, NO) observed 0950 UTC 22 January 2019
Temperature: -4.0°C (25°F)
Dewpoint: -6.0°C (21°F) [RH = 86%]
Pressure (altimeter): 29.65 inches Hg (1004.0 mb)
Winds: from the ESE (120 degrees) at 22 MPH (19 knots; 9.8 m/s)
Visibility: 6 or more miles (10+ km)
Ceiling: at least 12,000 feet AGL
Clouds: few clouds at 1000 feet AGL
scattered clouds at 18000 feet AGL
Weather: no significant weather observed at this time

METAR text: ENOL 220920Z 12019KT 9999 FEW010 SCT180 M04/M06 Q1004 NOSIG
Conditions at: ENOL (ORLAND III(NOR-A, NO) observed 0920 UTC 22 January 2019
Temperature: -4.0°C (25°F)
Dewpoint: -6.0°C (21°F) [RH = 86%]
Pressure (altimeter): 29.65 inches Hg (1004.0 mb)
Winds: from the ESE (120 degrees) at 22 MPH (19 knots; 9.8 m/s)
Visibility: 6 or more miles (10+ km)
Ceiling: at least 12,000 feet AGL
Clouds: few clouds at 1000 feet AGL
scattered clouds at 18000 feet AGL
Weather: no significant weather observed at this time

METAR text: ENOL 220850Z 13018KT 9999 FEW010 SCT180 M04/M06 Q1004 NOSIG
Conditions at: ENOL (ORLAND III(NOR-A, NO) observed 0850 UTC 22 January 2019
Temperature: -4.0°C (25°F)
Dewpoint: -6.0°C (21°F) [RH = 86%]
Pressure (altimeter): 29.65 inches Hg (1004.0 mb)
Winds: from the SE (130 degrees) at 21 MPH (18 knots; 9.3 m/s)
Visibility: 6 or more miles (10+ km)
Ceiling: at least 12,000 feet AGL
Clouds: few clouds at 1000 feet AGL
scattered clouds at 18000 feet AGL
Weather: no significant weather observed at this time

METAR text: ENOL 220820Z 13018KT 9999 FEW010 M04/M06 Q1005 NOSIG
Conditions at: ENOL (ORLAND III(NOR-A, NO) observed 0820 UTC 22 January 2019
Temperature: -4.0°C (25°F)
Dewpoint: -6.0°C (21°F) [RH = 86%]
Pressure (altimeter): 29.68 inches Hg (1005.0 mb)
Winds: from the SE (130 degrees) at 21 MPH (18 knots; 9.3 m/s)
Visibility: 6 or more miles (10+ km)
Ceiling: at least 12,000 feet AGL
Clouds: few clouds at 1000 feet AGL
Weather: no significant weather observed at this time

Forecast for: ENOL (ORLAND III(NOR-A, NO)
Text: TAF ENOL 2318/2418 13018KT 9999 FEW010 SCT040
Forecast period: 1800 UTC 23 January 2019 to 1800 UTC 24 January 2019
Forecast type: FROM: standard forecast or significant change
Winds: from the SE (130 degrees) at 21 MPH (18 knots; 9.3 m/s)
Visibility: 6 or more miles 10+ km)
Ceiling: at least 12,000 feet AGL
Clouds: few clouds at 1000 feet AGL
scattered clouds at 4000 feet AGL
Weather: no significant weather forecast for this period
Text: TEMPO 2405/2418 0800 SN VV006
Forecast period: 0500 to 1800 UTC 24 January 2019
Forecast type: TEMPORARY: The following changes expected for less than half the time period
Visibility: 0.50 miles (0.80 km)
Ceiling: indefinite ceiling with vertical visibility of 600 feet AGL
Clouds: obscured sky
Weather: SN  (moderate snow)
Text: PROB30 2416/2418 FZRA
Forecast period: 1600 to 1800 UTC 24 January 2019
Forecast type: PROBABLE: 30 percent likelihood of the following during this time
Visibility: missing
Ceiling: unknown
Clouds: missing
Weather: FZRA  (freezing rain)